sensor_id;sensor_type;location;lat;lon;timestamp;pressure;altitude;pressure_sealevel;temperature;humidity
76448;BME280;65284;51.040;13.722;2023-08-17T00:01:31;100121.19;;;23.43;80.70
76448;BME280;65284;51.040;13.722;2023-08-17T00:03:58;100113.78;;;23.38;81.21
76448;BME280;65284;51.040;13.722;2023-08-17T00:06:24;100117.91;;;23.41;81.04
76448;BME280;65284;51.040;13.722;2023-08-17T00:08:52;100115.09;;;23.36;81.20
76448;BME280;65284;51.040;13.722;2023-08-17T00:11:18;100097.94;;;23.19;82.34
76448;BME280;65284;51.040;13.722;2023-08-17T00:13:45;100103.19;;;23.08;82.65
76448;BME280;65284;51.040;13.722;2023-08-17T00:16:14;100097.91;;;23.02;83.04
76448;BME280;65284;51.040;13.722;2023-08-17T00:18:41;100092.59;;;22.95;83.41
76448;BME280;65284;51.040;13.722;2023-08-17T00:21:08;100088.66;;;23.14;82.64
76448;BME280;65284;51.040;13.722;2023-08-17T00:23:34;100098.97;;;22.89;83.58
76448;BME280;65284;51.040;13.722;2023-08-17T00:26:01;100090.31;;;23.15;82.69
76448;BME280;65284;51.040;13.722;2023-08-17T00:28:28;100083.06;;;23.04;83.22
76448;BME280;65284;51.040;13.722;2023-08-17T00:30:54;100083.06;;;23.04;83.50
76448;BME280;65284;51.040;13.722;2023-08-17T00:33:21;100073.00;;;22.64;85.14
76448;BME280;65284;51.040;13.722;2023-08-17T00:35:47;100067.47;;;22.59;86.08
76448;BME280;65284;51.040;13.722;2023-08-17T00:38:14;100062.75;;;22.78;84.88
76448;BME280;65284;51.040;13.722;2023-08-17T00:40:40;100047.91;;;22.81;84.69
76448;BME280;65284;51.040;13.722;2023-08-17T00:43:07;100041.84;;;22.90;84.34
76448;BME280;65284;51.040;13.722;2023-08-17T00:45:34;100050.28;;;22.65;85.75
76448;BME280;65284;51.040;13.722;2023-08-17T00:48:01;100042.50;;;22.81;84.67
76448;BME280;65284;51.040;13.722;2023-08-17T00:50:29;100053.50;;;22.91;84.29
76448;BME280;65284;51.040;13.722;2023-08-17T00:52:56;100050.94;;;22.96;84.33
76448;BME280;65284;51.040;13.722;2023-08-17T00:55:24;100045.03;;;22.99;83.92
76448;BME280;65284;51.040;13.722;2023-08-17T00:57:51;100033.13;;;23.00;84.04
76448;BME280;65284;51.040;13.722;2023-08-17T01:00:19;100051.31;;;22.76;85.35
76448;BME280;65284;51.040;13.722;2023-08-17T01:02:46;100049.22;;;22.66;85.48
76448;BME280;65284;51.040;13.722;2023-08-17T01:05:13;100053.66;;;22.84;85.01
76448;BME280;65284;51.040;13.722;2023-08-17T01:07:39;100054.13;;;22.81;84.73
76448;BME280;65284;51.040;13.722;2023-08-17T01:10:07;100068.19;;;22.66;85.22
76448;BME280;65284;51.040;13.722;2023-08-17T01:12:42;100075.94;;;22.75;85.32
76448;BME280;65284;51.040;13.722;2023-08-17T01:15:20;100078.06;;;22.73;85.40
76448;BME280;65284;51.040;13.722;2023-08-17T01:18:14;100077.81;;;22.62;85.61
76448;BME280;65284;51.040;13.722;2023-08-17T01:20:41;100072.22;;;22.52;86.15
76448;BME280;65284;51.040;13.722;2023-08-17T01:23:08;100083.50;;;22.14;88.09
76448;BME280;65284;51.040;13.722;2023-08-17T01:25:35;100082.09;;;22.58;86.46
76448;BME280;65284;51.040;13.722;2023-08-17T01:28:04;100077.84;;;22.39;86.63
76448;BME280;65284;51.040;13.722;2023-08-17T01:30:39;100071.25;;;22.58;85.78
76448;BME280;65284;51.040;13.722;2023-08-17T01:33:09;100073.34;;;22.68;86.02
76448;BME280;65284;51.040;13.722;2023-08-17T01:35:46;100083.94;;;22.69;85.82
76448;BME280;65284;51.040;13.722;2023-08-17T01:38:17;100074.06;;;22.63;85.49
76448;BME280;65284;51.040;13.722;2023-08-17T01:40:45;100081.75;;;22.31;87.09
76448;BME280;65284;51.040;13.722;2023-08-17T01:43:14;100077.28;;;22.37;87.34
76448;BME280;65284;51.040;13.722;2023-08-17T01:45:41;100075.06;;;22.34;87.40
76448;BME280;65284;51.040;13.722;2023-08-17T01:48:08;100082.38;;;22.21;87.89
76448;BME280;65284;51.040;13.722;2023-08-17T01:50:34;100086.31;;;22.07;88.96
76448;BME280;65284;51.040;13.722;2023-08-17T01:53:01;100098.63;;;21.79;90.33
76448;BME280;65284;51.040;13.722;2023-08-17T01:55:27;100093.03;;;22.04;89.21
76448;BME280;65284;51.040;13.722;2023-08-17T01:57:54;100091.44;;;21.73;91.02
76448;BME280;65284;51.040;13.722;2023-08-17T02:00:20;100090.47;;;21.56;91.86
76448;BME280;65284;51.040;13.722;2023-08-17T02:02:47;100090.03;;;21.83;90.41
76448;BME280;65284;51.040;13.722;2023-08-17T02:05:13;100095.91;;;21.79;90.51
76448;BME280;65284;51.040;13.722;2023-08-17T02:07:40;100091.44;;;21.73;91.07
76448;BME280;65284;51.040;13.722;2023-08-17T02:10:06;100089.97;;;21.89;90.10
76448;BME280;65284;51.040;13.722;2023-08-17T02:12:33;100086.06;;;21.97;89.70
76448;BME280;65284;51.040;13.722;2023-08-17T02:14:59;100086.66;;;21.99;89.58
76448;BME280;65284;51.040;13.722;2023-08-17T02:17:25;100090.19;;;21.99;89.57
76448;BME280;65284;51.040;13.722;2023-08-17T02:19:52;100088.44;;;22.05;89.12
76448;BME280;65284;51.040;13.722;2023-08-17T02:22:19;100082.19;;;21.93;89.74
76448;BME280;65284;51.040;13.722;2023-08-17T02:24:45;100084.56;;;21.89;89.97
76448;BME280;65284;51.040;13.722;2023-08-17T02:27:12;100086.53;;;21.94;89.13
76448;BME280;65284;51.040;13.722;2023-08-17T02:29:39;100094.09;;;21.92;89.62
76448;BME280;65284;51.040;13.722;2023-08-17T02:32:06;100095.72;;;21.93;88.94
76448;BME280;65284;51.040;13.722;2023-08-17T02:34:32;100103.69;;;21.88;88.63
76448;BME280;65284;51.040;13.722;2023-08-17T02:36:58;100107.66;;;21.73;88.85
76448;BME280;65284;51.040;13.722;2023-08-17T02:39:25;100094.38;;;21.60;88.59
76448;BME280;65284;51.040;13.722;2023-08-17T02:41:52;100096.25;;;21.60;88.74
76448;BME280;65284;51.040;13.722;2023-08-17T02:44:18;100101.31;;;21.79;87.84
76448;BME280;65284;51.040;13.722;2023-08-17T02:46:45;100100.84;;;21.83;87.50
76448;BME280;65284;51.040;13.722;2023-08-17T02:49:11;100089.44;;;21.69;88.68
76448;BME280;65284;51.040;13.722;2023-08-17T02:51:37;100099.69;;;21.78;88.26
76448;BME280;65284;51.040;13.722;2023-08-17T02:54:04;100106.25;;;21.83;87.95
76448;BME280;65284;51.040;13.722;2023-08-17T02:56:30;100100.53;;;21.91;87.74
76448;BME280;65284;51.040;13.722;2023-08-17T02:58:57;100098.88;;;21.90;87.91
76448;BME280;65284;51.040;13.722;2023-08-17T03:01:24;100096.38;;;21.76;88.41
76448;BME280;65284;51.040;13.722;2023-08-17T03:03:50;100097.69;;;21.86;88.09
76448;BME280;65284;51.040;13.722;2023-08-17T03:06:17;100095.72;;;21.93;87.94
76448;BME280;65284;51.040;13.722;2023-08-17T03:08:43;100100.03;;;21.70;88.86
76448;BME280;65284;51.040;13.722;2023-08-17T03:11:10;100095.69;;;21.69;88.96
76448;BME280;65284;51.040;13.722;2023-08-17T03:13:36;100094.03;;;21.38;90.49
76448;BME280;65284;51.040;13.722;2023-08-17T03:16:03;100089.75;;;21.49;90.43
76448;BME280;65284;51.040;13.722;2023-08-17T03:18:30;100093.66;;;21.34;91.20
76448;BME280;65284;51.040;13.722;2023-08-17T03:20:56;100098.88;;;21.36;91.28
76448;BME280;65284;51.040;13.722;2023-08-17T03:23:22;100099.50;;;21.50;90.37
76448;BME280;65284;51.040;13.722;2023-08-17T03:25:53;100106.94;;;21.66;89.90
76448;BME280;65284;51.040;13.722;2023-08-17T03:28:19;100100.34;;;21.62;89.99
76448;BME280;65284;51.040;13.722;2023-08-17T03:30:46;100108.19;;;21.52;90.39
76448;BME280;65284;51.040;13.722;2023-08-17T03:33:12;100107.94;;;21.42;91.10
76448;BME280;65284;51.040;13.722;2023-08-17T03:35:39;100105.13;;;21.48;90.84
76448;BME280;65284;51.040;13.722;2023-08-17T03:38:05;100099.41;;;21.56;89.95
76448;BME280;65284;51.040;13.722;2023-08-17T03:40:32;100092.41;;;21.37;90.56
76448;BME280;65284;51.040;13.722;2023-08-17T03:42:58;100091.38;;;21.50;90.75
76448;BME280;65284;51.040;13.722;2023-08-17T03:45:24;100084.81;;;21.46;90.77
76448;BME280;65284;51.040;13.722;2023-08-17T03:47:51;100087.44;;;21.34;91.18
76448;BME280;65284;51.040;13.722;2023-08-17T03:50:17;100093.66;;;21.34;91.33
76448;BME280;65284;51.040;13.722;2023-08-17T03:52:44;100100.81;;;21.29;91.78
76448;BME280;65284;51.040;13.722;2023-08-17T03:55:10;100095.16;;;21.49;90.79
76448;BME280;65284;51.040;13.722;2023-08-17T03:57:37;100093.28;;;21.31;91.84
76448;BME280;65284;51.040;13.722;2023-08-17T04:00:06;100104.03;;;21.38;91.70
76448;BME280;65284;51.040;13.722;2023-08-17T04:02:33;100097.53;;;21.27;92.14
76448;BME280;65284;51.040;13.722;2023-08-17T04:04:59;100090.81;;;21.29;91.70
76448;BME280;65284;51.040;13.722;2023-08-17T04:07:26;100089.03;;;21.23;92.26
76448;BME280;65284;51.040;13.722;2023-08-17T04:09:53;100083.72;;;21.17;91.95
76448;BME280;65284;51.040;13.722;2023-08-17T04:12:20;100096.19;;;20.99;93.03
76448;BME280;65284;51.040;13.722;2023-08-17T04:14:46;100091.56;;;21.06;92.40
76448;BME280;65284;51.040;13.722;2023-08-17T04:17:15;100095.50;;;21.22;91.25
76448;BME280;65284;51.040;13.722;2023-08-17T04:19:44;100101.34;;;21.19;91.46
76448;BME280;65284;51.040;13.722;2023-08-17T04:22:10;100100.81;;;21.29;90.78
76448;BME280;65284;51.040;13.722;2023-08-17T04:24:37;100100.19;;;21.15;91.08
76448;BME280;65284;51.040;13.722;2023-08-17T04:27:03;100108.41;;;21.20;90.48
76448;BME280;65284;51.040;13.722;2023-08-17T04:29:31;100106.41;;;21.46;89.57
76448;BME280;65284;51.040;13.722;2023-08-17T04:31:58;100105.50;;;21.52;89.04
76448;BME280;65284;51.040;13.722;2023-08-17T04:34:25;100111.25;;;21.55;88.10
76448;BME280;65284;51.040;13.722;2023-08-17T04:36:51;100110.31;;;21.31;89.57
76448;BME280;65284;51.040;13.722;2023-08-17T04:39:17;100115.47;;;21.21;89.98
76448;BME280;65284;51.040;13.722;2023-08-17T04:41:44;100115.34;;;20.98;90.91
76448;BME280;65284;51.040;13.722;2023-08-17T04:44:10;100117.88;;;21.11;90.55
76448;BME280;65284;51.040;13.722;2023-08-17T04:46:37;100119.19;;;21.20;90.04
76448;BME280;65284;51.040;13.722;2023-08-17T04:49:03;100118.38;;;21.20;89.87
76448;BME280;65284;51.040;13.722;2023-08-17T04:51:30;100113.75;;;21.57;88.24
76448;BME280;65284;51.040;13.722;2023-08-17T04:53:56;100123.63;;;21.63;87.92
76448;BME280;65284;51.040;13.722;2023-08-17T04:56:23;100141.25;;;21.35;88.71
76448;BME280;65284;51.040;13.722;2023-08-17T04:58:49;100141.34;;;21.10;90.21
76448;BME280;65284;51.040;13.722;2023-08-17T05:01:16;100146.84;;;21.04;91.03
76448;BME280;65284;51.040;13.722;2023-08-17T05:03:42;100146.09;;;20.97;90.76
76448;BME280;65284;51.040;13.722;2023-08-17T05:06:09;100144.16;;;20.85;92.02
76448;BME280;65284;51.040;13.722;2023-08-17T05:08:35;100149.16;;;20.82;92.06
76448;BME280;65284;51.040;13.722;2023-08-17T05:11:02;100146.53;;;20.75;92.72
76448;BME280;65284;51.040;13.722;2023-08-17T05:13:28;100151.88;;;21.00;91.74
76448;BME280;65284;51.040;13.722;2023-08-17T05:15:54;100143.84;;;21.12;91.23
76448;BME280;65284;51.040;13.722;2023-08-17T05:18:21;100142.94;;;21.18;90.96
76448;BME280;65284;51.040;13.722;2023-08-17T05:20:47;100146.50;;;21.30;90.39
76448;BME280;65284;51.040;13.722;2023-08-17T05:23:14;100152.66;;;21.38;90.26
76448;BME280;65284;51.040;13.722;2023-08-17T05:25:40;100149.19;;;21.49;89.33
76448;BME280;65284;51.040;13.722;2023-08-17T05:28:07;100147.03;;;21.69;88.43
76448;BME280;65284;51.040;13.722;2023-08-17T05:30:33;100145.19;;;21.81;87.60
76448;BME280;65284;51.040;13.722;2023-08-17T05:33:00;100151.19;;;21.84;87.48
76448;BME280;65284;51.040;13.722;2023-08-17T05:35:26;100150.47;;;21.76;88.04
76448;BME280;65284;51.040;13.722;2023-08-17T05:37:53;100150.00;;;21.79;88.16
76448;BME280;65284;51.040;13.722;2023-08-17T05:40:19;100146.50;;;21.91;87.46
76448;BME280;65284;51.040;13.722;2023-08-17T05:42:45;100151.34;;;22.00;86.75
76448;BME280;65284;51.040;13.722;2023-08-17T05:45:12;100167.09;;;21.92;86.60
76448;BME280;65284;51.040;13.722;2023-08-17T05:47:38;100162.66;;;21.67;87.48
76448;BME280;65284;51.040;13.722;2023-08-17T05:50:05;100163.56;;;21.61;88.18
76448;BME280;65284;51.040;13.722;2023-08-17T05:52:32;100172.56;;;21.43;88.31
76448;BME280;65284;51.040;13.722;2023-08-17T05:54:58;100166.09;;;21.44;88.86
76448;BME280;65284;51.040;13.722;2023-08-17T05:57:25;100161.78;;;21.55;88.68
76448;BME280;65284;51.040;13.722;2023-08-17T05:59:52;100182.00;;;21.52;87.62
76448;BME280;65284;51.040;13.722;2023-08-17T06:02:18;100178.63;;;21.20;88.09
76448;BME280;65284;51.040;13.722;2023-08-17T06:04:47;100168.97;;;21.12;89.12
76448;BME280;65284;51.040;13.722;2023-08-17T06:07:14;100177.25;;;21.29;88.22
76448;BME280;65284;51.040;13.722;2023-08-17T06:09:40;100180.75;;;21.18;88.69
76448;BME280;65284;51.040;13.722;2023-08-17T06:12:07;100185.94;;;21.01;88.82
76448;BME280;65284;51.040;13.722;2023-08-17T06:14:33;100184.19;;;21.07;88.88
76448;BME280;65284;51.040;13.722;2023-08-17T06:17:00;100185.00;;;21.26;87.50
76448;BME280;65284;51.040;13.722;2023-08-17T06:19:27;100192.53;;;21.42;87.23
76448;BME280;65284;51.040;13.722;2023-08-17T06:21:53;100207.13;;;21.34;86.83
76448;BME280;65284;51.040;13.722;2023-08-17T06:24:20;100198.41;;;21.32;87.21
76448;BME280;65284;51.040;13.722;2023-08-17T06:26:46;100195.59;;;21.27;88.28
76448;BME280;65284;51.040;13.722;2023-08-17T06:29:13;100193.63;;;21.34;87.77
76448;BME280;65284;51.040;13.722;2023-08-17T06:31:39;100211.63;;;21.59;87.16
76448;BME280;65284;51.040;13.722;2023-08-17T06:34:05;100212.97;;;21.68;87.72
76448;BME280;65284;51.040;13.722;2023-08-17T06:36:32;100209.78;;;21.60;88.28
76448;BME280;65284;51.040;13.722;2023-08-17T06:38:59;100200.50;;;21.37;89.11
76448;BME280;65284;51.040;13.722;2023-08-17T06:41:25;100208.66;;;21.49;88.69
76448;BME280;65284;51.040;13.722;2023-08-17T06:43:52;100202.78;;;21.52;87.86
76448;BME280;65284;51.040;13.722;2023-08-17T06:46:18;100211.16;;;21.50;87.88
76448;BME280;65284;51.040;13.722;2023-08-17T06:48:45;100201.41;;;21.61;87.41
76448;BME280;65284;51.040;13.722;2023-08-17T06:51:11;100198.56;;;21.74;86.94
76448;BME280;65284;51.040;13.722;2023-08-17T06:53:38;100182.59;;;21.85;85.97
76448;BME280;65284;51.040;13.722;2023-08-17T06:56:04;100183.97;;;21.75;86.86
76448;BME280;65284;51.040;13.722;2023-08-17T06:58:30;100192.50;;;22.02;84.93
76448;BME280;65284;51.040;13.722;2023-08-17T07:00:57;100191.44;;;21.92;85.43
76448;BME280;65284;51.040;13.722;2023-08-17T07:03:23;100190.50;;;21.98;85.19
76448;BME280;65284;51.040;13.722;2023-08-17T07:05:50;100196.25;;;21.90;85.17
76448;BME280;65284;51.040;13.722;2023-08-17T07:08:16;100198.94;;;21.90;85.24
76448;BME280;65284;51.040;13.722;2023-08-17T07:10:43;100192.69;;;22.19;84.41
76448;BME280;65284;51.040;13.722;2023-08-17T07:13:09;100192.22;;;22.22;84.07
76448;BME280;65284;51.040;13.722;2023-08-17T07:15:36;100184.72;;;22.36;82.59
76448;BME280;65284;51.040;13.722;2023-08-17T07:18:03;100182.31;;;22.16;83.81
76448;BME280;65284;51.040;13.722;2023-08-17T07:20:29;100188.00;;;22.26;83.84
76448;BME280;65284;51.040;13.722;2023-08-17T07:22:56;100196.25;;;22.32;83.33
76448;BME280;65284;51.040;13.722;2023-08-17T07:25:23;100193.28;;;22.21;83.95
76448;BME280;65284;51.040;13.722;2023-08-17T07:27:49;100195.31;;;22.38;82.98
76448;BME280;65284;51.040;13.722;2023-08-17T07:30:16;100196.72;;;22.29;83.23
76448;BME280;65284;51.040;13.722;2023-08-17T07:32:42;100197.41;;;22.36;83.46
76448;BME280;65284;51.040;13.722;2023-08-17T07:35:09;100191.44;;;22.57;82.82
76448;BME280;65284;51.040;13.722;2023-08-17T07:37:35;100200.03;;;22.78;81.93
76448;BME280;65284;51.040;13.722;2023-08-17T07:40:02;100199.78;;;22.67;82.01
76448;BME280;65284;51.040;13.722;2023-08-17T07:42:31;100203.22;;;22.75;81.52
76448;BME280;65284;51.040;13.722;2023-08-17T07:44:58;100201.31;;;22.87;80.84
76448;BME280;65284;51.040;13.722;2023-08-17T07:47:24;100190.94;;;23.07;80.70
76448;BME280;65284;51.040;13.722;2023-08-17T07:49:52;100189.41;;;23.11;80.06
76448;BME280;65284;51.040;13.722;2023-08-17T07:52:18;100181.81;;;23.37;78.53
76448;BME280;65284;51.040;13.722;2023-08-17T07:54:45;100181.94;;;23.19;80.03
76448;BME280;65284;51.040;13.722;2023-08-17T07:57:12;100175.59;;;23.13;79.79
76448;BME280;65284;51.040;13.722;2023-08-17T07:59:38;100176.44;;;23.13;80.13
76448;BME280;65284;51.040;13.722;2023-08-17T08:02:05;100172.84;;;23.25;80.15
76448;BME280;65284;51.040;13.722;2023-08-17T08:04:31;100166.84;;;23.34;79.08
76448;BME280;65284;51.040;13.722;2023-08-17T08:06:57;100159.16;;;23.43;78.41
76448;BME280;65284;51.040;13.722;2023-08-17T08:09:24;100157.56;;;23.19;79.42
76448;BME280;65284;51.040;13.722;2023-08-17T08:11:50;100157.59;;;23.47;79.08
76448;BME280;65284;51.040;13.722;2023-08-17T08:14:17;100155.84;;;23.41;79.21
76448;BME280;65284;51.040;13.722;2023-08-17T08:16:43;100157.28;;;23.32;79.03
76448;BME280;65284;51.040;13.722;2023-08-17T08:19:10;100143.38;;;23.57;77.57
76448;BME280;65284;51.040;13.722;2023-08-17T08:21:36;100153.94;;;23.42;77.53
76448;BME280;65284;51.040;13.722;2023-08-17T08:24:03;100145.97;;;23.35;78.47
76448;BME280;65284;51.040;13.722;2023-08-17T08:26:31;100140.06;;;23.38;77.59
76448;BME280;65284;51.040;13.722;2023-08-17T08:28:57;100130.09;;;23.55;76.93
76448;BME280;65284;51.040;13.722;2023-08-17T08:31:24;100136.50;;;23.49;76.82
76448;BME280;65284;51.040;13.722;2023-08-17T08:33:50;100117.25;;;23.51;77.67
76448;BME280;65284;51.040;13.722;2023-08-17T08:36:19;100111.84;;;23.51;78.49
76448;BME280;65284;51.040;13.722;2023-08-17T08:38:45;100115.28;;;23.46;78.18
76448;BME280;65284;51.040;13.722;2023-08-17T08:41:12;100115.47;;;23.56;78.19
76448;BME280;65284;51.040;13.722;2023-08-17T08:43:38;100118.84;;;23.64;78.13
76448;BME280;65284;51.040;13.722;2023-08-17T08:46:05;100122.41;;;24.48;74.95
76448;BME280;65284;51.040;13.722;2023-08-17T08:48:32;100121.00;;;24.46;74.16
76448;BME280;65284;51.040;13.722;2023-08-17T08:51:00;100125.41;;;24.69;73.35
76448;BME280;65284;51.040;13.722;2023-08-17T08:53:32;100124.75;;;25.01;70.86
76448;BME280;65284;51.040;13.722;2023-08-17T08:56:03;100120.63;;;24.98;70.56
76448;BME280;65284;51.040;13.722;2023-08-17T08:58:32;100122.59;;;25.03;71.03
76448;BME280;65284;51.040;13.722;2023-08-17T09:01:00;100117.22;;;24.86;70.68
76448;BME280;65284;51.040;13.722;2023-08-17T09:03:27;100116.81;;;24.99;70.19
76448;BME280;65284;51.040;13.722;2023-08-17T09:05:55;100118.66;;;24.93;70.53
76448;BME280;65284;51.040;13.722;2023-08-17T09:08:27;100118.19;;;24.96;70.16
76448;BME280;65284;51.040;13.722;2023-08-17T09:10:54;100110.88;;;25.02;69.77
76448;BME280;65284;51.040;13.722;2023-08-17T09:13:20;100107.31;;;24.96;69.61
76448;BME280;65284;51.040;13.722;2023-08-17T09:15:47;100108.44;;;25.01;69.27
76448;BME280;65284;51.040;13.722;2023-08-17T09:18:13;100105.91;;;25.16;69.30
76448;BME280;65284;51.040;13.722;2023-08-17T09:20:41;100103.78;;;25.18;68.83
76448;BME280;65284;51.040;13.722;2023-08-17T09:23:16;100101.13;;;25.23;68.90
76448;BME280;65284;51.040;13.722;2023-08-17T09:25:44;100103.25;;;25.48;68.17
76448;BME280;65284;51.040;13.722;2023-08-17T09:28:15;100103.06;;;25.55;67.91
76448;BME280;65284;51.040;13.722;2023-08-17T09:33:25;100107.50;;;25.66;67.33
76448;BME280;65284;51.040;13.722;2023-08-17T09:35:53;100099.81;;;25.58;66.73
76448;BME280;65284;51.040;13.722;2023-08-17T09:38:23;100100.91;;;25.57;67.27
76448;BME280;65284;51.040;13.722;2023-08-17T09:40:50;100096.78;;;25.54;66.10
76448;BME280;65284;51.040;13.722;2023-08-17T09:43:18;100093.75;;;25.78;66.17
76448;BME280;65284;51.040;13.722;2023-08-17T09:45:45;100097.72;;;25.65;66.23
76448;BME280;65284;51.040;13.722;2023-08-17T09:48:16;100097.72;;;25.65;65.82
76448;BME280;65284;51.040;13.722;2023-08-17T09:50:47;100091.13;;;25.61;66.21
76448;BME280;65284;51.040;13.722;2023-08-17T09:53:18;100092.16;;;25.55;65.86
76448;BME280;65284;51.040;13.722;2023-08-17T09:55:45;100094.00;;;25.44;66.06
76448;BME280;65284;51.040;13.722;2023-08-17T09:58:13;100097.00;;;25.48;66.41
76448;BME280;65284;51.040;13.722;2023-08-17T10:00:44;100096.78;;;25.54;65.60
76448;BME280;65284;51.040;13.722;2023-08-17T10:03:17;100089.38;;;25.45;65.91
76448;BME280;65284;51.040;13.722;2023-08-17T10:05:47;100092.09;;;25.45;65.93
76448;BME280;65284;51.040;13.722;2023-08-17T10:08:19;100086.13;;;25.48;66.31
76448;BME280;65284;51.040;13.722;2023-08-17T10:10:46;100085.09;;;25.54;66.75
76448;BME280;65284;51.040;13.722;2023-08-17T10:13:18;100082.09;;;25.55;66.44
76448;BME280;65284;51.040;13.722;2023-08-17T10:16:01;100076.47;;;25.62;65.92
76448;BME280;65284;51.040;13.722;2023-08-17T10:18:37;100075.97;;;25.65;65.74
76448;BME280;65284;51.040;13.722;2023-08-17T10:21:08;100084.66;;;25.67;65.89
76448;BME280;65284;51.040;13.722;2023-08-17T10:23:36;100074.88;;;25.66;65.76
76448;BME280;65284;51.040;13.722;2023-08-17T10:26:08;100072.72;;;25.68;65.87
76448;BME280;65284;51.040;13.722;2023-08-17T10:28:35;100077.16;;;25.79;65.76
76448;BME280;65284;51.040;13.722;2023-08-17T10:31:01;100075.00;;;25.81;65.56
76448;BME280;65284;51.040;13.722;2023-08-17T10:33:28;100071.38;;;26.03;64.55
76448;BME280;65284;51.040;13.722;2023-08-17T10:35:55;100065.84;;;25.93;65.45
76448;BME280;65284;51.040;13.722;2023-08-17T10:38:22;100056.69;;;26.04;65.23
76448;BME280;65284;51.040;13.722;2023-08-17T10:41:08;100052.34;;;26.08;64.92
76448;BME280;65284;51.040;13.722;2023-08-17T10:43:53;100063.28;;;26.13;64.96
76448;BME280;65284;51.040;13.722;2023-08-17T10:46:20;100052.97;;;26.15;65.26
76448;BME280;65284;51.040;13.722;2023-08-17T10:48:46;100052.97;;;26.15;65.08
76448;BME280;65284;51.040;13.722;2023-08-17T10:51:12;100053.53;;;26.22;65.32
76448;BME280;65284;51.040;13.722;2023-08-17T10:53:42;100041.88;;;26.32;64.78
76448;BME280;65284;51.040;13.722;2023-08-17T10:56:13;100044.88;;;26.30;64.80
76448;BME280;65284;51.040;13.722;2023-08-17T10:58:42;100038.34;;;26.31;65.25
76448;BME280;65284;51.040;13.722;2023-08-17T11:01:09;100033.47;;;26.44;64.98
76448;BME280;65284;51.040;13.722;2023-08-17T11:03:36;100036.78;;;26.46;64.81
76448;BME280;65284;51.040;13.722;2023-08-17T11:06:16;100036.78;;;26.46;65.00
76448;BME280;65284;51.040;13.722;2023-08-17T11:08:55;100030.34;;;26.62;64.92
76448;BME280;65284;51.040;13.722;2023-08-17T11:11:24;100028.16;;;26.59;64.81
76448;BME280;65284;51.040;13.722;2023-08-17T11:13:57;100022.72;;;26.69;64.63
76448;BME280;65284;51.040;13.722;2023-08-17T11:16:24;100026.56;;;26.73;65.01
76448;BME280;65284;51.040;13.722;2023-08-17T11:18:51;100026.00;;;26.76;65.46
76448;BME280;65284;51.040;13.722;2023-08-17T11:21:18;100027.16;;;26.91;64.83
76448;BME280;65284;51.040;13.722;2023-08-17T11:23:46;100026.59;;;26.84;65.31
76448;BME280;65284;51.040;13.722;2023-08-17T11:26:16;100025.53;;;27.00;65.26
76448;BME280;65284;51.040;13.722;2023-08-17T11:28:43;100023.88;;;26.94;65.55
76448;BME280;65284;51.040;13.722;2023-08-17T11:31:13;100020.34;;;26.93;65.74
76448;BME280;65284;51.040;13.722;2023-08-17T11:33:40;100018.47;;;26.99;65.78
76448;BME280;65284;51.040;13.722;2023-08-17T11:36:08;100022.81;;;26.95;65.39
76448;BME280;65284;51.040;13.722;2023-08-17T11:38:37;100018.47;;;26.99;65.55
76448;BME280;65284;51.040;13.722;2023-08-17T11:41:04;100012.44;;;26.87;65.53
76448;BME280;65284;51.040;13.722;2023-08-17T11:43:32;100016.84;;;26.98;65.17
76448;BME280;65284;51.040;13.722;2023-08-17T11:46:00;100014.09;;;27.03;65.01
76448;BME280;65284;51.040;13.722;2023-08-17T11:48:27;100011.38;;;26.98;65.16
76448;BME280;65284;51.040;13.722;2023-08-17T11:50:54;100007.56;;;27.09;64.45
76448;BME280;65284;51.040;13.722;2023-08-17T11:53:24;100000.47;;;27.03;64.67
76448;BME280;65284;51.040;13.722;2023-08-17T11:55:51;99998.88;;;27.17;64.53
76448;BME280;65284;51.040;13.722;2023-08-17T11:58:36;100005.44;;;27.21;64.40
76448;BME280;65284;51.040;13.722;2023-08-17T12:01:02;99999.44;;;27.25;64.49
76448;BME280;65284;51.040;13.722;2023-08-17T12:03:34;99993.44;;;27.33;64.10
76448;BME280;65284;51.040;13.722;2023-08-17T12:06:01;99984.16;;;27.29;63.92
76448;BME280;65284;51.040;13.722;2023-08-17T12:08:29;99989.63;;;27.29;63.83
76448;BME280;65284;51.040;13.722;2023-08-17T12:10:55;99992.91;;;27.26;63.67
76448;BME280;65284;51.040;13.722;2023-08-17T12:13:32;99974.91;;;27.19;63.36
76448;BME280;65284;51.040;13.722;2023-08-17T12:15:59;99983.09;;;27.40;63.44
76448;BME280;65284;51.040;13.722;2023-08-17T12:18:26;99985.25;;;27.33;63.42
76448;BME280;65284;51.040;13.722;2023-08-17T12:20:53;99978.44;;;27.45;63.03
76448;BME280;65284;51.040;13.722;2023-08-17T12:23:20;99969.69;;;27.54;62.22
76448;BME280;65284;51.040;13.722;2023-08-17T12:25:52;99974.34;;;27.43;62.84
76448;BME280;65284;51.040;13.722;2023-08-17T12:28:19;99963.16;;;27.44;63.02
76448;BME280;65284;51.040;13.722;2023-08-17T12:30:45;99968.63;;;27.50;62.64
76448;BME280;65284;51.040;13.722;2023-08-17T12:33:12;99960.69;;;27.58;62.43
76448;BME280;65284;51.040;13.722;2023-08-17T12:35:38;99956.31;;;27.67;60.12
76448;BME280;65284;51.040;13.722;2023-08-17T12:38:05;99959.63;;;27.54;61.50
76448;BME280;65284;51.040;13.722;2023-08-17T12:40:31;99942.66;;;27.62;60.43
76448;BME280;65284;51.040;13.722;2023-08-17T12:42:58;99950.84;;;27.73;58.49
76448;BME280;65284;51.040;13.722;2023-08-17T12:45:24;99946.75;;;27.70;58.92